sensor_id;sensor_type;location;lat;lon;timestamp;P1;durP1;ratioP1;P2;durP2;ratioP2
6424;SDS011;12193;42.642;23.384;2022-09-12T00:02:21;7.20;;;4.93;;
6424;SDS011;12193;42.642;23.384;2022-09-12T00:04:53;7.80;;;5.60;;
6424;SDS011;12193;42.642;23.384;2022-09-12T02:58:27;4.30;;;3.50;;
6424;SDS011;12193;42.642;23.384;2022-09-12T03:01:00;5.73;;;4.10;;
6424;SDS011;12193;42.642;23.384;2022-09-12T03:03:48;4.80;;;4.00;;
6424;SDS011;12193;42.642;23.384;2022-09-12T03:06:29;4.90;;;3.70;;
6424;SDS011;12193;42.642;23.384;2022-09-12T03:09:05;5.03;;;4.00;;
6424;SDS011;12193;42.642;23.384;2022-09-12T03:11:57;4.27;;;3.57;;
6424;SDS011;12193;42.642;23.384;2022-09-12T03:15:02;5.90;;;3.97;;
6424;SDS011;12193;42.642;23.384;2022-09-12T03:17:42;5.30;;;4.20;;
6424;SDS011;12193;42.642;23.384;2022-09-12T03:20:23;5.60;;;3.80;;
6424;SDS011;12193;42.642;23.384;2022-09-12T03:23:02;6.20;;;4.20;;
6424;SDS011;12193;42.642;23.384;2022-09-12T03:25:39;6.00;;;4.50;;
6424;SDS011;12193;42.642;23.384;2022-09-12T03:28:13;7.97;;;5.03;;
6424;SDS011;12193;42.642;23.384;2022-09-12T03:30:48;9.57;;;5.53;;
6424;SDS011;12193;42.642;23.384;2022-09-12T03:33:21;4.80;;;4.00;;
6424;SDS011;12193;42.642;23.384;2022-09-12T03:35:52;5.67;;;4.17;;
6424;SDS011;12193;42.642;23.384;2022-09-12T03:38:22;6.53;;;4.53;;
6424;SDS011;12193;42.642;23.384;2022-09-12T03:40:51;5.43;;;4.07;;
6424;SDS011;12193;42.642;23.384;2022-09-12T03:43:21;6.00;;;4.70;;
6424;SDS011;12193;42.642;23.384;2022-09-12T03:45:54;5.43;;;4.17;;
6424;SDS011;12193;42.642;23.384;2022-09-12T03:48:23;7.77;;;4.40;;
6424;SDS011;12193;42.642;23.384;2022-09-12T03:50:52;6.60;;;4.93;;
6424;SDS011;12193;42.642;23.384;2022-09-12T03:53:21;5.87;;;4.53;;
6424;SDS011;12193;42.642;23.384;2022-09-12T03:55:51;5.57;;;4.60;;
6424;SDS011;12193;42.642;23.384;2022-09-12T03:58:20;5.77;;;4.50;;
6424;SDS011;12193;42.642;23.384;2022-09-12T04:00:49;6.40;;;4.90;;
6424;SDS011;12193;42.642;23.384;2022-09-12T04:03:22;9.07;;;4.93;;
6424;SDS011;12193;42.642;23.384;2022-09-12T04:05:51;5.70;;;4.00;;
6424;SDS011;12193;42.642;23.384;2022-09-12T04:08:20;5.43;;;4.07;;
6424;SDS011;12193;42.642;23.384;2022-09-12T04:10:51;7.83;;;4.57;;
6424;SDS011;12193;42.642;23.384;2022-09-12T04:13:20;7.30;;;4.27;;
6424;SDS011;12193;42.642;23.384;2022-09-12T04:15:57;5.27;;;4.17;;
6424;SDS011;12193;42.642;23.384;2022-09-12T04:18:27;6.40;;;4.50;;
6424;SDS011;12193;42.642;23.384;2022-09-12T04:20:56;7.93;;;4.60;;
6424;SDS011;12193;42.642;23.384;2022-09-12T04:23:26;5.23;;;3.80;;
6424;SDS011;12193;42.642;23.384;2022-09-12T04:25:55;7.93;;;4.93;;
6424;SDS011;12193;42.642;23.384;2022-09-12T04:28:25;7.97;;;4.30;;
6424;SDS011;12193;42.642;23.384;2022-09-12T04:31:02;6.20;;;4.70;;
6424;SDS011;12193;42.642;23.384;2022-09-12T04:33:34;7.60;;;4.40;;
6424;SDS011;12193;42.642;23.384;2022-09-12T04:36:05;7.23;;;5.17;;
6424;SDS011;12193;42.642;23.384;2022-09-12T04:38:36;6.23;;;5.27;;
6424;SDS011;12193;42.642;23.384;2022-09-12T04:41:09;5.93;;;4.97;;
6424;SDS011;12193;42.642;23.384;2022-09-12T04:43:39;8.37;;;5.30;;
6424;SDS011;12193;42.642;23.384;2022-09-12T04:46:11;7.93;;;5.60;;
6424;SDS011;12193;42.642;23.384;2022-09-12T04:48:44;7.33;;;5.20;;
6424;SDS011;12193;42.642;23.384;2022-09-12T04:51:15;6.70;;;5.17;;
6424;SDS011;12193;42.642;23.384;2022-09-12T04:53:46;7.03;;;4.90;;
6424;SDS011;12193;42.642;23.384;2022-09-12T04:56:17;7.73;;;4.80;;
6424;SDS011;12193;42.642;23.384;2022-09-12T04:58:48;8.53;;;5.33;;
6424;SDS011;12193;42.642;23.384;2022-09-12T05:01:20;6.47;;;4.57;;
6424;SDS011;12193;42.642;23.384;2022-09-12T05:03:50;7.27;;;5.83;;
6424;SDS011;12193;42.642;23.384;2022-09-12T05:06:21;7.63;;;5.13;;
6424;SDS011;12193;42.642;23.384;2022-09-12T05:08:53;7.43;;;5.13;;
6424;SDS011;12193;42.642;23.384;2022-09-12T05:11:24;7.30;;;5.50;;
6424;SDS011;12193;42.642;23.384;2022-09-12T05:13:54;9.90;;;6.80;;
6424;SDS011;12193;42.642;23.384;2022-09-12T05:16:27;7.07;;;5.13;;
6424;SDS011;12193;42.642;23.384;2022-09-12T05:18:57;8.33;;;4.90;;
6424;SDS011;12193;42.642;23.384;2022-09-12T05:21:27;10.43;;;5.70;;
6424;SDS011;12193;42.642;23.384;2022-09-12T05:23:57;9.07;;;5.33;;
6424;SDS011;12193;42.642;23.384;2022-09-12T05:26:27;6.73;;;5.33;;
6424;SDS011;12193;42.642;23.384;2022-09-12T05:28:56;8.27;;;5.13;;
6424;SDS011;12193;42.642;23.384;2022-09-12T05:31:28;4.97;;;4.20;;
6424;SDS011;12193;42.642;23.384;2022-09-12T05:33:57;6.47;;;4.53;;
6424;SDS011;12193;42.642;23.384;2022-09-12T05:36:31;7.87;;;4.90;;
6424;SDS011;12193;42.642;23.384;2022-09-12T05:39:02;10.87;;;4.83;;
6424;SDS011;12193;42.642;23.384;2022-09-12T05:41:32;5.93;;;4.23;;
6424;SDS011;12193;42.642;23.384;2022-09-12T05:44:02;10.63;;;5.70;;
6424;SDS011;12193;42.642;23.384;2022-09-12T05:46:37;7.20;;;4.87;;
6424;SDS011;12193;42.642;23.384;2022-09-12T05:49:08;5.73;;;4.53;;
6424;SDS011;12193;42.642;23.384;2022-09-12T05:51:39;6.90;;;4.30;;
6424;SDS011;12193;42.642;23.384;2022-09-12T05:54:11;6.03;;;3.70;;
6424;SDS011;12193;42.642;23.384;2022-09-12T05:56:42;6.33;;;4.40;;
6424;SDS011;12193;42.642;23.384;2022-09-12T05:59:12;5.10;;;4.33;;
6424;SDS011;12193;42.642;23.384;2022-09-12T06:01:46;7.93;;;4.47;;
6424;SDS011;12193;42.642;23.384;2022-09-12T06:04:17;5.83;;;4.10;;
6424;SDS011;12193;42.642;23.384;2022-09-12T06:06:46;5.63;;;4.33;;
6424;SDS011;12193;42.642;23.384;2022-09-12T06:09:16;5.73;;;4.70;;
6424;SDS011;12193;42.642;23.384;2022-09-12T06:11:45;5.70;;;3.90;;
6424;SDS011;12193;42.642;23.384;2022-09-12T06:14:15;8.60;;;4.47;;
6424;SDS011;12193;42.642;23.384;2022-09-12T06:16:48;6.33;;;4.13;;
6424;SDS011;12193;42.642;23.384;2022-09-12T06:19:18;5.97;;;4.47;;
6424;SDS011;12193;42.642;23.384;2022-09-12T06:21:48;5.73;;;4.27;;
6424;SDS011;12193;42.642;23.384;2022-09-12T06:24:18;8.30;;;4.43;;
6424;SDS011;12193;42.642;23.384;2022-09-12T06:26:50;4.80;;;4.23;;
6424;SDS011;12193;42.642;23.384;2022-09-12T06:29:20;5.73;;;4.30;;
6424;SDS011;12193;42.642;23.384;2022-09-12T06:31:52;4.90;;;4.40;;
6424;SDS011;12193;42.642;23.384;2022-09-12T06:34:21;4.90;;;4.20;;
6424;SDS011;12193;42.642;23.384;2022-09-12T06:36:52;5.10;;;4.07;;
6424;SDS011;12193;42.642;23.384;2022-09-12T06:39:21;4.47;;;4.07;;
6424;SDS011;12193;42.642;23.384;2022-09-12T06:41:50;6.47;;;5.03;;
6424;SDS011;12193;42.642;23.384;2022-09-12T06:44:21;6.30;;;4.33;;
6424;SDS011;12193;42.642;23.384;2022-09-12T06:46:53;5.40;;;4.20;;
6424;SDS011;12193;42.642;23.384;2022-09-12T06:49:23;7.67;;;4.43;;
6424;SDS011;12193;42.642;23.384;2022-09-12T06:51:52;5.13;;;4.17;;
6424;SDS011;12193;42.642;23.384;2022-09-12T06:54:21;4.60;;;4.10;;
6424;SDS011;12193;42.642;23.384;2022-09-12T06:56:51;7.10;;;4.30;;
6424;SDS011;12193;42.642;23.384;2022-09-12T06:59:21;5.60;;;4.60;;
6424;SDS011;12193;42.642;23.384;2022-09-12T07:01:52;5.17;;;4.30;;
6424;SDS011;12193;42.642;23.384;2022-09-12T07:04:22;7.20;;;4.47;;
6424;SDS011;12193;42.642;23.384;2022-09-12T07:06:52;6.33;;;4.30;;
6424;SDS011;12193;42.642;23.384;2022-09-12T07:09:21;4.90;;;4.40;;
6424;SDS011;12193;42.642;23.384;2022-09-12T07:11:51;6.03;;;4.37;;
6424;SDS011;12193;42.642;23.384;2022-09-12T07:14:20;4.77;;;4.30;;
6424;SDS011;12193;42.642;23.384;2022-09-12T07:16:53;5.10;;;4.10;;
6424;SDS011;12193;42.642;23.384;2022-09-12T07:19:23;4.80;;;4.27;;
6424;SDS011;12193;42.642;23.384;2022-09-12T07:21:52;6.07;;;4.10;;
6424;SDS011;12193;42.642;23.384;2022-09-12T07:24:21;5.67;;;4.33;;
6424;SDS011;12193;42.642;23.384;2022-09-12T07:26:50;4.67;;;4.00;;
6424;SDS011;12193;42.642;23.384;2022-09-12T07:29:20;4.37;;;3.97;;
6424;SDS011;12193;42.642;23.384;2022-09-12T07:31:49;5.77;;;4.47;;
6424;SDS011;12193;42.642;23.384;2022-09-12T07:34:21;7.00;;;4.80;;
6424;SDS011;12193;42.642;23.384;2022-09-12T07:36:51;6.53;;;4.83;;
6424;SDS011;12193;42.642;23.384;2022-09-12T07:39:20;6.10;;;4.60;;
6424;SDS011;12193;42.642;23.384;2022-09-12T07:41:49;6.37;;;4.73;;
6424;SDS011;12193;42.642;23.384;2022-09-12T07:44:19;6.17;;;5.37;;
6424;SDS011;12193;42.642;23.384;2022-09-12T07:46:50;5.20;;;4.70;;
6424;SDS011;12193;42.642;23.384;2022-09-12T07:49:22;5.87;;;4.80;;
6424;SDS011;12193;42.642;23.384;2022-09-12T07:51:51;6.00;;;5.00;;
6424;SDS011;12193;42.642;23.384;2022-09-12T07:54:21;5.80;;;5.20;;
6424;SDS011;12193;42.642;23.384;2022-09-12T07:56:51;6.23;;;4.73;;
6424;SDS011;12193;42.642;23.384;2022-09-12T07:59:20;5.43;;;4.93;;
6424;SDS011;12193;42.642;23.384;2022-09-12T08:01:50;6.67;;;4.97;;
6424;SDS011;12193;42.642;23.384;2022-09-12T08:04:21;5.77;;;4.97;;
6424;SDS011;12193;42.642;23.384;2022-09-12T08:06:51;6.30;;;5.03;;
6424;SDS011;12193;42.642;23.384;2022-09-12T08:09:20;5.00;;;4.37;;
6424;SDS011;12193;42.642;23.384;2022-09-12T08:11:50;5.43;;;4.70;;
6424;SDS011;12193;42.642;23.384;2022-09-12T08:14:19;5.70;;;4.70;;
6424;SDS011;12193;42.642;23.384;2022-09-12T08:16:48;6.23;;;4.10;;
6424;SDS011;12193;42.642;23.384;2022-09-12T08:19:18;5.00;;;4.20;;
6424;SDS011;12193;42.642;23.384;2022-09-12T08:21:50;4.40;;;4.00;;
6424;SDS011;12193;42.642;23.384;2022-09-12T08:24:19;5.60;;;4.10;;
6424;SDS011;12193;42.642;23.384;2022-09-12T08:26:50;4.30;;;3.90;;
6424;SDS011;12193;42.642;23.384;2022-09-12T08:29:19;5.43;;;4.47;;
6424;SDS011;12193;42.642;23.384;2022-09-12T08:31:48;5.97;;;4.00;;
6424;SDS011;12193;42.642;23.384;2022-09-12T08:34:17;4.40;;;4.00;;
6424;SDS011;12193;42.642;23.384;2022-09-12T08:36:47;4.83;;;3.77;;
6424;SDS011;12193;42.642;23.384;2022-09-12T08:39:19;5.03;;;3.80;;
6424;SDS011;12193;42.642;23.384;2022-09-12T08:41:54;4.50;;;3.83;;
6424;SDS011;12193;42.642;23.384;2022-09-12T08:47:29;6.47;;;3.70;;
6424;SDS011;12193;42.642;23.384;2022-09-12T08:50:04;4.40;;;4.00;;
6424;SDS011;12193;42.642;23.384;2022-09-12T08:52:44;4.30;;;3.90;;
6424;SDS011;12193;42.642;23.384;2022-09-12T08:55:23;4.80;;;3.97;;
6424;SDS011;12193;42.642;23.384;2022-09-12T08:57:56;5.50;;;4.33;;
6424;SDS011;12193;42.642;23.384;2022-09-12T09:00:29;5.50;;;3.97;;
6424;SDS011;12193;42.642;23.384;2022-09-12T09:06:01;5.10;;;4.47;;
6424;SDS011;12193;42.642;23.384;2022-09-12T09:08:47;5.00;;;3.97;;
6424;SDS011;12193;42.642;23.384;2022-09-12T09:11:32;5.20;;;4.27;;
6424;SDS011;12193;42.642;23.384;2022-09-12T09:14:13;6.27;;;4.40;;
6424;SDS011;12193;42.642;23.384;2022-09-12T09:16:56;5.17;;;4.03;;
6424;SDS011;12193;42.642;23.384;2022-09-12T09:19:29;5.00;;;4.13;;
6424;SDS011;12193;42.642;23.384;2022-09-12T09:22:03;7.50;;;3.93;;
6424;SDS011;12193;42.642;23.384;2022-09-12T09:24:40;6.50;;;4.03;;
6424;SDS011;12193;42.642;23.384;2022-09-12T09:27:14;4.47;;;4.07;;
6424;SDS011;12193;42.642;23.384;2022-09-12T09:29:57;7.63;;;4.13;;
6424;SDS011;12193;42.642;23.384;2022-09-12T09:32:27;5.17;;;4.33;;
6424;SDS011;12193;42.642;23.384;2022-09-12T09:35:01;5.93;;;4.23;;
6424;SDS011;12193;42.642;23.384;2022-09-12T09:37:40;5.00;;;4.50;;
6424;SDS011;12193;42.642;23.384;2022-09-12T09:40:18;5.07;;;4.50;;
6424;SDS011;12193;42.642;23.384;2022-09-12T09:42:54;4.90;;;4.40;;
6424;SDS011;12193;42.642;23.384;2022-09-12T09:45:29;7.67;;;4.60;;
6424;SDS011;12193;42.642;23.384;2022-09-12T09:48:00;5.80;;;4.40;;
6424;SDS011;12193;42.642;23.384;2022-09-12T09:50:39;7.87;;;4.33;;
6424;SDS011;12193;42.642;23.384;2022-09-12T09:53:11;4.80;;;4.27;;
6424;SDS011;12193;42.642;23.384;2022-09-12T09:55:54;5.20;;;4.63;;
6424;SDS011;12193;42.642;23.384;2022-09-12T09:58:30;4.40;;;4.00;;
6424;SDS011;12193;42.642;23.384;2022-09-12T10:01:00;5.20;;;4.07;;
6424;SDS011;12193;42.642;23.384;2022-09-12T10:03:31;6.47;;;4.37;;
6424;SDS011;12193;42.642;23.384;2022-09-12T10:06:05;7.00;;;4.47;;
6424;SDS011;12193;42.642;23.384;2022-09-12T10:08:35;5.60;;;4.40;;
6424;SDS011;12193;42.642;23.384;2022-09-12T10:11:17;7.07;;;4.10;;
6424;SDS011;12193;42.642;23.384;2022-09-12T10:13:51;6.37;;;3.87;;
6424;SDS011;12193;42.642;23.384;2022-09-12T10:16:23;4.30;;;3.90;;
6424;SDS011;12193;42.642;23.384;2022-09-12T10:18:54;8.37;;;4.60;;
6424;SDS011;12193;42.642;23.384;2022-09-12T10:21:29;6.67;;;4.07;;
6424;SDS011;12193;42.642;23.384;2022-09-12T10:24:03;4.97;;;4.10;;
6424;SDS011;12193;42.642;23.384;2022-09-12T10:26:45;7.93;;;4.17;;
6424;SDS011;12193;42.642;23.384;2022-09-12T10:29:20;6.00;;;4.60;;
6424;SDS011;12193;42.642;23.384;2022-09-12T10:31:53;5.97;;;4.60;;
6424;SDS011;12193;42.642;23.384;2022-09-12T10:34:27;5.30;;;4.80;;
6424;SDS011;12193;42.642;23.384;2022-09-12T10:37:02;4.80;;;4.40;;
6424;SDS011;12193;42.642;23.384;2022-09-12T10:39:33;6.87;;;4.40;;
6424;SDS011;12193;42.642;23.384;2022-09-12T10:42:11;7.27;;;5.27;;
6424;SDS011;12193;42.642;23.384;2022-09-12T10:44:43;6.80;;;4.83;;
6424;SDS011;12193;42.642;23.384;2022-09-12T10:47:21;6.80;;;5.10;;
6424;SDS011;12193;42.642;23.384;2022-09-12T10:49:52;6.57;;;5.20;;
6424;SDS011;12193;42.642;23.384;2022-09-12T10:52:42;7.33;;;5.10;;
6424;SDS011;12193;42.642;23.384;2022-09-12T10:55:12;5.77;;;4.80;;
6424;SDS011;12193;42.642;23.384;2022-09-12T10:57:53;7.33;;;4.53;;
6424;SDS011;12193;42.642;23.384;2022-09-12T11:00:34;6.60;;;4.27;;
6424;SDS011;12193;42.642;23.384;2022-09-12T11:03:13;6.97;;;4.77;;
6424;SDS011;12193;42.642;23.384;2022-09-12T11:05:50;5.43;;;4.47;;
6424;SDS011;12193;42.642;23.384;2022-09-12T11:08:28;5.47;;;4.30;;
6424;SDS011;12193;42.642;23.384;2022-09-12T11:11:14;7.00;;;4.40;;
6424;SDS011;12193;42.642;23.384;2022-09-12T11:14:03;8.63;;;4.97;;
6424;SDS011;12193;42.642;23.384;2022-09-12T11:16:42;7.57;;;5.10;;
6424;SDS011;12193;42.642;23.384;2022-09-12T11:19:23;4.83;;;4.33;;
6424;SDS011;12193;42.642;23.384;2022-09-12T11:22:18;6.60;;;4.90;;
6424;SDS011;12193;42.642;23.384;2022-09-12T11:27:53;6.30;;;4.70;;
6424;SDS011;12193;42.642;23.384;2022-09-12T11:30:35;6.67;;;4.57;;
6424;SDS011;12193;42.642;23.384;2022-09-12T11:33:15;5.83;;;4.47;;
6424;SDS011;12193;42.642;23.384;2022-09-12T11:35:56;6.97;;;4.90;;
6424;SDS011;12193;42.642;23.384;2022-09-12T11:38:38;5.80;;;4.80;;
6424;SDS011;12193;42.642;23.384;2022-09-12T11:41:16;5.10;;;4.60;;
6424;SDS011;12193;42.642;23.384;2022-09-12T11:43:53;5.53;;;3.93;;
6424;SDS011;12193;42.642;23.384;2022-09-12T11:46:32;6.87;;;4.57;;
6424;SDS011;12193;42.642;23.384;2022-09-12T11:49:05;6.13;;;4.90;;
6424;SDS011;12193;42.642;23.384;2022-09-12T11:51:47;6.10;;;4.40;;
6424;SDS011;12193;42.642;23.384;2022-09-12T11:54:23;5.77;;;4.77;;
6424;SDS011;12193;42.642;23.384;2022-09-12T11:56:59;6.97;;;4.73;;
6424;SDS011;12193;42.642;23.384;2022-09-12T11:59:35;8.80;;;5.23;;
6424;SDS011;12193;42.642;23.384;2022-09-12T12:02:16;5.53;;;5.03;;
6424;SDS011;12193;42.642;23.384;2022-09-12T12:05:01;6.20;;;4.90;;
6424;SDS011;12193;42.642;23.384;2022-09-12T12:07:36;5.87;;;5.20;;
6424;SDS011;12193;42.642;23.384;2022-09-12T12:10:20;5.87;;;4.60;;
6424;SDS011;12193;42.642;23.384;2022-09-12T12:12:53;8.97;;;5.13;;
6424;SDS011;12193;42.642;23.384;2022-09-12T12:15:24;11.73;;;5.77;;
6424;SDS011;12193;42.642;23.384;2022-09-12T12:18:04;9.50;;;6.07;;
6424;SDS011;12193;42.642;23.384;2022-09-12T12:20:35;7.87;;;5.20;;
6424;SDS011;12193;42.642;23.384;2022-09-12T12:23:05;5.23;;;4.73;;
6424;SDS011;12193;42.642;23.384;2022-09-12T12:25:38;4.80;;;4.30;;
6424;SDS011;12193;42.642;23.384;2022-09-12T12:28:09;6.27;;;4.53;;
6424;SDS011;12193;42.642;23.384;2022-09-12T12:36:39;4.77;;;4.30;;
6424;SDS011;12193;42.642;23.384;2022-09-12T12:48:09;4.37;;;3.90;;
6424;SDS011;12193;42.642;23.384;2022-09-12T12:50:46;5.03;;;4.10;;
6424;SDS011;12193;42.642;23.384;2022-09-12T12:53:16;5.17;;;3.97;;
6424;SDS011;12193;42.642;23.384;2022-09-12T12:55:50;7.70;;;4.00;;
6424;SDS011;12193;42.642;23.384;2022-09-12T12:58:27;4.73;;;3.83;;
6424;SDS011;12193;42.642;23.384;2022-09-12T13:01:06;4.90;;;4.20;;
6424;SDS011;12193;42.642;23.384;2022-09-12T13:03:40;4.60;;;3.83;;
6424;SDS011;12193;42.642;23.384;2022-09-12T13:06:22;5.03;;;4.10;;
6424;SDS011;12193;42.642;23.384;2022-09-12T13:08:59;7.23;;;4.20;;
6424;SDS011;12193;42.642;23.384;2022-09-12T13:11:32;5.83;;;4.13;;
6424;SDS011;12193;42.642;23.384;2022-09-12T13:14:04;6.37;;;4.77;;
6424;SDS011;12193;42.642;23.384;2022-09-12T13:16:36;4.93;;;4.50;;
6424;SDS011;12193;42.642;23.384;2022-09-12T13:19:07;5.10;;;4.57;;
6424;SDS011;12193;42.642;23.384;2022-09-12T13:21:55;5.47;;;4.33;;
6424;SDS011;12193;42.642;23.384;2022-09-12T13:24:27;5.97;;;4.73;;
6424;SDS011;12193;42.642;23.384;2022-09-12T13:26:56;8.03;;;4.90;;
6424;SDS011;12193;42.642;23.384;2022-09-12T13:29:27;7.03;;;5.23;;
6424;SDS011;12193;42.642;23.384;2022-09-12T13:31:57;5.50;;;5.00;;
6424;SDS011;12193;42.642;23.384;2022-09-12T13:34:29;5.73;;;5.23;;
6424;SDS011;12193;42.642;23.384;2022-09-12T13:40:12;5.50;;;5.00;;
6424;SDS011;12193;42.642;23.384;2022-09-12T13:42:52;5.70;;;4.50;;
6424;SDS011;12193;42.642;23.384;2022-09-12T13:45:36;7.87;;;4.90;;
6424;SDS011;12193;42.642;23.384;2022-09-12T13:48:09;5.93;;;4.83;;
6424;SDS011;12193;42.642;23.384;2022-09-12T13:50:45;7.70;;;5.23;;
6424;SDS011;12193;42.642;23.384;2022-09-12T13:53:22;5.23;;;4.70;;
6424;SDS011;12193;42.642;23.384;2022-09-12T13:55:54;5.17;;;4.67;;
6424;SDS011;12193;42.642;23.384;2022-09-12T13:58:27;5.33;;;4.83;;
6424;SDS011;12193;42.642;23.384;2022-09-12T14:01:03;5.97;;;5.37;;
6424;SDS011;12193;42.642;23.384;2022-09-12T14:03:37;6.23;;;5.60;;
6424;SDS011;12193;42.642;23.384;2022-09-12T14:06:20;6.60;;;5.60;;
6424;SDS011;12193;42.642;23.384;2022-09-12T14:08:54;6.90;;;5.80;;
6424;SDS011;12193;42.642;23.384;2022-09-12T14:11:26;6.60;;;5.90;;
6424;SDS011;12193;42.642;23.384;2022-09-12T14:13:58;6.30;;;5.70;;
6424;SDS011;12193;42.642;23.384;2022-09-12T14:16:36;11.63;;;6.07;;
6424;SDS011;12193;42.642;23.384;2022-09-12T14:19:08;6.63;;;5.70;;
6424;SDS011;12193;42.642;23.384;2022-09-12T14:21:41;8.10;;;5.47;;
6424;SDS011;12193;42.642;23.384;2022-09-12T14:24:13;9.47;;;6.03;;
6424;SDS011;12193;42.642;23.384;2022-09-12T14:26:42;6.70;;;6.00;;
6424;SDS011;12193;42.642;23.384;2022-09-12T14:29:14;7.63;;;6.33;;
6424;SDS011;12193;42.642;23.384;2022-09-12T14:31:45;8.50;;;6.70;;
6424;SDS011;12193;42.642;23.384;2022-09-12T14:34:14;8.73;;;6.53;;
6424;SDS011;12193;42.642;23.384;2022-09-12T14:36:46;6.60;;;6.00;;
6424;SDS011;12193;42.642;23.384;2022-09-12T14:39:21;7.80;;;6.53;;
6424;SDS011;12193;42.642;23.384;2022-09-12T14:42:01;8.40;;;6.07;;
6424;SDS011;12193;42.642;23.384;2022-09-12T14:44:33;6.73;;;6.03;;
6424;SDS011;12193;42.642;23.384;2022-09-12T14:47:11;8.00;;;6.43;;
6424;SDS011;12193;42.642;23.384;2022-09-12T14:49:43;8.90;;;6.00;;
6424;SDS011;12193;42.642;23.384;2022-09-12T14:52:20;9.47;;;6.87;;
6424;SDS011;12193;42.642;23.384;2022-09-12T14:54:59;6.10;;;5.50;;
6424;SDS011;12193;42.642;23.384;2022-09-12T14:57:34;7.57;;;5.90;;
6424;SDS011;12193;42.642;23.384;2022-09-12T15:00:14;7.17;;;6.20;;
6424;SDS011;12193;42.642;23.384;2022-09-12T15:02:46;9.00;;;6.70;;
6424;SDS011;12193;42.642;23.384;2022-09-12T15:05:17;8.43;;;6.10;;
6424;SDS011;12193;42.642;23.384;2022-09-12T15:07:53;7.87;;;6.53;;
6424;SDS011;12193;42.642;23.384;2022-09-12T15:10:28;6.90;;;6.07;;
6424;SDS011;12193;42.642;23.384;2022-09-12T15:15:53;9.60;;;7.10;;
6424;SDS011;12193;42.642;23.384;2022-09-12T15:18:24;6.70;;;5.87;;
6424;SDS011;12193;42.642;23.384;2022-09-12T15:20:55;9.00;;;6.20;;
6424;SDS011;12193;42.642;23.384;2022-09-12T15:23:29;9.90;;;6.27;;
6424;SDS011;12193;42.642;23.384;2022-09-12T15:26:06;9.03;;;6.10;;
6424;SDS011;12193;42.642;23.384;2022-09-12T15:28:37;9.93;;;6.03;;
6424;SDS011;12193;42.642;23.384;2022-09-12T15:31:09;6.90;;;6.00;;
6424;SDS011;12193;42.642;23.384;2022-09-12T15:33:43;8.33;;;5.90;;
6424;SDS011;12193;42.642;23.384;2022-09-12T15:36:13;6.53;;;5.73;;
6424;SDS011;12193;42.642;23.384;2022-09-12T15:38:44;8.67;;;6.40;;
6424;SDS011;12193;42.642;23.384;2022-09-12T15:41:17;8.33;;;6.30;;
6424;SDS011;12193;42.642;23.384;2022-09-12T15:43:48;6.97;;;6.23;;
6424;SDS011;12193;42.642;23.384;2022-09-12T15:46:18;7.70;;;6.33;;
6424;SDS011;12193;42.642;23.384;2022-09-12T15:48:48;8.23;;;6.60;;
6424;SDS011;12193;42.642;23.384;2022-09-12T15:51:18;10.60;;;6.43;;
6424;SDS011;12193;42.642;23.384;2022-09-12T15:53:50;8.60;;;6.30;;
6424;SDS011;12193;42.642;23.384;2022-09-12T15:56:22;8.40;;;6.37;;
6424;SDS011;12193;42.642;23.384;2022-09-12T15:58:51;6.57;;;5.90;;
6424;SDS011;12193;42.642;23.384;2022-09-12T16:01:21;9.07;;;6.53;;
6424;SDS011;12193;42.642;23.384;2022-09-12T16:03:50;7.40;;;6.10;;
6424;SDS011;12193;42.642;23.384;2022-09-12T16:06:19;6.97;;;6.27;;
6424;SDS011;12193;42.642;23.384;2022-09-12T16:08:49;6.80;;;6.03;;
6424;SDS011;12193;42.642;23.384;2022-09-12T16:11:18;7.80;;;6.10;;
6424;SDS011;12193;42.642;23.384;2022-09-12T16:13:52;10.57;;;6.93;;
6424;SDS011;12193;42.642;23.384;2022-09-12T16:16:23;9.73;;;6.27;;
6424;SDS011;12193;42.642;23.384;2022-09-12T16:18:52;9.07;;;6.27;;
6424;SDS011;12193;42.642;23.384;2022-09-12T16:21:22;7.83;;;5.50;;
6424;SDS011;12193;42.642;23.384;2022-09-12T16:23:52;9.07;;;5.97;;
6424;SDS011;12193;42.642;23.384;2022-09-12T16:26:24;9.77;;;6.03;;
6424;SDS011;12193;42.642;23.384;2022-09-12T16:28:53;7.50;;;6.20;;
6424;SDS011;12193;42.642;23.384;2022-09-12T16:31:23;9.57;;;6.47;;
6424;SDS011;12193;42.642;23.384;2022-09-12T16:33:54;7.73;;;6.13;;
6424;SDS011;12193;42.642;23.384;2022-09-12T16:36:23;7.13;;;6.37;;
6424;SDS011;12193;42.642;23.384;2022-09-12T16:38:53;9.80;;;6.90;;
6424;SDS011;12193;42.642;23.384;2022-09-12T16:41:24;11.03;;;7.50;;
6424;SDS011;12193;42.642;23.384;2022-09-12T16:43:54;9.20;;;6.17;;
6424;SDS011;12193;42.642;23.384;2022-09-12T16:46:24;7.77;;;6.77;;
6424;SDS011;12193;42.642;23.384;2022-09-12T16:48:55;8.93;;;6.13;;
6424;SDS011;12193;42.642;23.384;2022-09-12T16:51:26;7.93;;;6.17;;
6424;SDS011;12193;42.642;23.384;2022-09-12T16:53:58;9.70;;;6.50;;
6424;SDS011;12193;42.642;23.384;2022-09-12T16:56:30;8.43;;;6.60;;
6424;SDS011;12193;42.642;23.384;2022-09-12T16:58:59;8.23;;;6.20;;
6424;SDS011;12193;42.642;23.384;2022-09-12T17:01:30;8.90;;;6.33;;
6424;SDS011;12193;42.642;23.384;2022-09-12T17:04:00;8.13;;;6.80;;
6424;SDS011;12193;42.642;23.384;2022-09-12T17:06:29;8.70;;;7.03;;
6424;SDS011;12193;42.642;23.384;2022-09-12T17:09:01;9.43;;;6.43;;
6424;SDS011;12193;42.642;23.384;2022-09-12T17:11:35;7.03;;;6.00;;
6424;SDS011;12193;42.642;23.384;2022-09-12T17:14:06;7.03;;;6.07;;
6424;SDS011;12193;42.642;23.384;2022-09-12T17:16:37;9.23;;;5.87;;
6424;SDS011;12193;42.642;23.384;2022-09-12T17:19:09;7.13;;;6.43;;
6424;SDS011;12193;42.642;23.384;2022-09-12T17:21:42;8.67;;;6.23;;
6424;SDS011;12193;42.642;23.384;2022-09-12T17:24:12;7.17;;;6.07;;
6424;SDS011;12193;42.642;23.384;2022-09-12T17:26:44;7.20;;;5.97;;
6424;SDS011;12193;42.642;23.384;2022-09-12T17:29:14;6.93;;;6.23;;
6424;SDS011;12193;42.642;23.384;2022-09-12T17:31:44;7.13;;;5.40;;
6424;SDS011;12193;42.642;23.384;2022-09-12T17:34:13;6.57;;;5.87;;
6424;SDS011;12193;42.642;23.384;2022-09-12T17:36:43;6.97;;;5.87;;
6424;SDS011;12193;42.642;23.384;2022-09-12T17:39:17;6.40;;;5.43;;
6424;SDS011;12193;42.642;23.384;2022-09-12T17:41:53;6.10;;;5.50;;
6424;SDS011;12193;42.642;23.384;2022-09-12T17:44:24;8.00;;;5.77;;
6424;SDS011;12193;42.642;23.384;2022-09-12T17:46:54;6.60;;;5.70;;
6424;SDS011;12193;42.642;23.384;2022-09-12T17:49:24;11.90;;;5.93;;
6424;SDS011;12193;42.642;23.384;2022-09-12T17:51:53;6.17;;;5.53;;
6424;SDS011;12193;42.642;23.384;2022-09-12T17:54:23;7.67;;;5.60;;
6424;SDS011;12193;42.642;23.384;2022-09-12T17:56:55;7.40;;;5.40;;
6424;SDS011;12193;42.642;23.384;2022-09-12T17:59:24;11.33;;;5.50;;
6424;SDS011;12193;42.642;23.384;2022-09-12T18:01:54;5.93;;;5.30;;
6424;SDS011;12193;42.642;23.384;2022-09-12T18:04:42;6.27;;;4.90;;
6424;SDS011;12193;42.642;23.384;2022-09-12T18:07:14;6.97;;;5.40;;
6424;SDS011;12193;42.642;23.384;2022-09-12T18:09:44;6.13;;;5.40;;
6424;SDS011;12193;42.642;23.384;2022-09-12T18:12:17;5.40;;;4.80;;
6424;SDS011;12193;42.642;23.384;2022-09-12T18:14:47;6.97;;;5.43;;
6424;SDS011;12193;42.642;23.384;2022-09-12T18:17:16;6.10;;;5.03;;
6424;SDS011;12193;42.642;23.384;2022-09-12T18:19:46;5.90;;;5.30;;
6424;SDS011;12193;42.642;23.384;2022-09-12T18:22:18;7.00;;;4.70;;
6424;SDS011;12193;42.642;23.384;2022-09-12T18:24:48;6.50;;;5.23;;
6424;SDS011;12193;42.642;23.384;2022-09-12T18:27:20;6.83;;;5.10;;
6424;SDS011;12193;42.642;23.384;2022-09-12T18:29:49;6.53;;;5.23;;
6424;SDS011;12193;42.642;23.384;2022-09-12T18:32:19;6.67;;;5.20;;
6424;SDS011;12193;42.642;23.384;2022-09-12T18:34:48;5.60;;;5.00;;
6424;SDS011;12193;42.642;23.384;2022-09-12T18:37:17;7.47;;;5.17;;
6424;SDS011;12193;42.642;23.384;2022-09-12T18:39:47;5.47;;;4.77;;
6424;SDS011;12193;42.642;23.384;2022-09-12T18:42:16;6.27;;;5.10;;
6424;SDS011;12193;42.642;23.384;2022-09-12T18:44:48;6.93;;;5.20;;